KLNN/LNN METAR and TAF weather

Enter ICAO airport designator
Station Type Date Time Source
KLNN METAR 2020/04/05 19:35 UTC NOAA

KLNN 051935Z AUTO 35006KT 10SM OVC010 04/00 A3016 RMK AO1 T00381003


Station Type Date Time Source
KLNN Decoded METAR 2020/04/05 19:35 UTC NOAA

Willoughby, OH, United States (KLNN) 41-41N 081-23W
Apr 05, 2020 - 03:35 PM EDT / 2020.04.05 1935 UTC
Wind: from the N (350 degrees) at 7 MPH (6 KT):0
Visibility: 10 mile(s):0
Sky conditions: overcast
Temperature: 38.8 F (3.8 C)
Dew Point: 31.5 F (-0.3 C)
Relative Humidity: 74%
Pressure (altimeter): 30.16 in. Hg (1021 hPa)
ob: KLNN 051935Z AUTO 35006KT 10SM OVC010 04/00 A3016 RMK AO1 T00381003
cycle: 19

Station Type Date Time Source
KLNN TAF UTC NOAA

Error!

Example: see airport list